sensor_id;sensor_type;location;lat;lon;timestamp;P1;durP1;ratioP1;P2;durP2;ratioP2
6378;SDS011;3222;48.858;10.128;2023-06-14T00:01:02;2.80;;;2.60;;
6378;SDS011;3222;48.858;10.128;2023-06-14T00:03:28;3.20;;;2.90;;
6378;SDS011;3222;48.858;10.128;2023-06-14T00:05:54;3.10;;;2.67;;
6378;SDS011;3222;48.858;10.128;2023-06-14T00:08:20;3.87;;;2.60;;
6378;SDS011;3222;48.858;10.128;2023-06-14T00:10:47;3.10;;;2.83;;
6378;SDS011;3222;48.858;10.128;2023-06-14T00:13:13;3.63;;;3.03;;
6378;SDS011;3222;48.858;10.128;2023-06-14T00:15:39;2.93;;;2.73;;
6378;SDS011;3222;48.858;10.128;2023-06-14T00:18:05;4.03;;;2.80;;
6378;SDS011;3222;48.858;10.128;2023-06-14T00:20:32;3.10;;;2.60;;
6378;SDS011;3222;48.858;10.128;2023-06-14T00:22:59;4.50;;;2.83;;
6378;SDS011;3222;48.858;10.128;2023-06-14T00:25:25;4.50;;;2.80;;
6378;SDS011;3222;48.858;10.128;2023-06-14T00:27:52;3.77;;;2.80;;
6378;SDS011;3222;48.858;10.128;2023-06-14T00:30:18;3.43;;;2.73;;
6378;SDS011;3222;48.858;10.128;2023-06-14T00:32:44;2.93;;;2.73;;
6378;SDS011;3222;48.858;10.128;2023-06-14T00:35:10;3.10;;;2.80;;
6378;SDS011;3222;48.858;10.128;2023-06-14T00:37:36;4.23;;;2.57;;
6378;SDS011;3222;48.858;10.128;2023-06-14T00:40:03;5.77;;;3.17;;
6378;SDS011;3222;48.858;10.128;2023-06-14T00:42:30;2.43;;;2.30;;
6378;SDS011;3222;48.858;10.128;2023-06-14T00:44:56;4.30;;;2.93;;
6378;SDS011;3222;48.858;10.128;2023-06-14T00:47:23;6.07;;;2.73;;
6378;SDS011;3222;48.858;10.128;2023-06-14T00:49:53;3.03;;;2.73;;
6378;SDS011;3222;48.858;10.128;2023-06-14T00:52:20;3.30;;;2.73;;
6378;SDS011;3222;48.858;10.128;2023-06-14T00:54:47;2.80;;;2.53;;
6378;SDS011;3222;48.858;10.128;2023-06-14T00:57:13;2.80;;;2.60;;
6378;SDS011;3222;48.858;10.128;2023-06-14T00:59:45;3.60;;;2.80;;
6378;SDS011;3222;48.858;10.128;2023-06-14T01:02:12;2.90;;;2.50;;
6378;SDS011;3222;48.858;10.128;2023-06-14T01:04:40;3.37;;;2.83;;
6378;SDS011;3222;48.858;10.128;2023-06-14T01:07:30;3.60;;;2.80;;
6378;SDS011;3222;48.858;10.128;2023-06-14T01:15:46;2.70;;;2.50;;
6378;SDS011;3222;48.858;10.128;2023-06-14T01:18:13;2.90;;;2.67;;
6378;SDS011;3222;48.858;10.128;2023-06-14T01:20:45;4.17;;;2.60;;
6378;SDS011;3222;48.858;10.128;2023-06-14T01:23:19;2.70;;;2.50;;
6378;SDS011;3222;48.858;10.128;2023-06-14T01:25:46;4.67;;;2.80;;
6378;SDS011;3222;48.858;10.128;2023-06-14T01:28:13;2.53;;;2.33;;
6378;SDS011;3222;48.858;10.128;2023-06-14T01:30:42;2.87;;;2.60;;
6378;SDS011;3222;48.858;10.128;2023-06-14T01:33:17;4.43;;;2.60;;
6378;SDS011;3222;48.858;10.128;2023-06-14T01:35:48;2.90;;;2.50;;
6378;SDS011;3222;48.858;10.128;2023-06-14T01:38:17;5.23;;;2.87;;
6378;SDS011;3222;48.858;10.128;2023-06-14T01:40:45;3.77;;;2.97;;
6378;SDS011;3222;48.858;10.128;2023-06-14T01:43:13;3.03;;;2.80;;
6378;SDS011;3222;48.858;10.128;2023-06-14T01:45:40;4.57;;;2.60;;
6378;SDS011;3222;48.858;10.128;2023-06-14T01:48:08;3.30;;;2.80;;
6378;SDS011;3222;48.858;10.128;2023-06-14T01:50:34;6.60;;;3.13;;
6378;SDS011;3222;48.858;10.128;2023-06-14T01:53:00;3.43;;;2.50;;
6378;SDS011;3222;48.858;10.128;2023-06-14T01:55:26;4.20;;;2.93;;
6378;SDS011;3222;48.858;10.128;2023-06-14T01:57:52;5.47;;;4.13;;
6378;SDS011;3222;48.858;10.128;2023-06-14T02:00:18;4.50;;;4.10;;
6378;SDS011;3222;48.858;10.128;2023-06-14T02:02:45;6.50;;;5.50;;
6378;SDS011;3222;48.858;10.128;2023-06-14T02:05:11;7.13;;;4.80;;
6378;SDS011;3222;48.858;10.128;2023-06-14T02:07:40;5.53;;;4.67;;
6378;SDS011;3222;48.858;10.128;2023-06-14T02:10:06;4.53;;;4.13;;
6378;SDS011;3222;48.858;10.128;2023-06-14T02:12:32;4.97;;;3.97;;
6378;SDS011;3222;48.858;10.128;2023-06-14T02:14:57;6.23;;;3.77;;
6378;SDS011;3222;48.858;10.128;2023-06-14T02:17:23;3.60;;;3.30;;
6378;SDS011;3222;48.858;10.128;2023-06-14T02:19:50;3.50;;;3.20;;
6378;SDS011;3222;48.858;10.128;2023-06-14T02:22:15;4.23;;;3.10;;
6378;SDS011;3222;48.858;10.128;2023-06-14T02:24:42;4.43;;;3.50;;
6378;SDS011;3222;48.858;10.128;2023-06-14T02:27:07;5.70;;;3.80;;
6378;SDS011;3222;48.858;10.128;2023-06-14T02:29:36;6.17;;;3.97;;
6378;SDS011;3222;48.858;10.128;2023-06-14T02:32:03;5.20;;;3.77;;
6378;SDS011;3222;48.858;10.128;2023-06-14T02:34:30;6.03;;;3.63;;
6378;SDS011;3222;48.858;10.128;2023-06-14T02:36:56;7.33;;;4.30;;
6378;SDS011;3222;48.858;10.128;2023-06-14T02:39:22;4.27;;;3.80;;
6378;SDS011;3222;48.858;10.128;2023-06-14T02:41:48;6.03;;;3.93;;
6378;SDS011;3222;48.858;10.128;2023-06-14T02:44:17;4.53;;;3.60;;
6378;SDS011;3222;48.858;10.128;2023-06-14T02:46:44;3.90;;;3.47;;
6378;SDS011;3222;48.858;10.128;2023-06-14T02:49:10;4.20;;;3.80;;
6378;SDS011;3222;48.858;10.128;2023-06-14T02:51:37;4.10;;;3.27;;
6378;SDS011;3222;48.858;10.128;2023-06-14T02:54:03;5.17;;;3.27;;
6378;SDS011;3222;48.858;10.128;2023-06-14T02:56:29;6.33;;;3.20;;
6378;SDS011;3222;48.858;10.128;2023-06-14T02:58:56;4.60;;;3.03;;
6378;SDS011;3222;48.858;10.128;2023-06-14T03:01:22;4.10;;;3.70;;
6378;SDS011;3222;48.858;10.128;2023-06-14T03:03:48;4.17;;;3.63;;
6378;SDS011;3222;48.858;10.128;2023-06-14T03:06:14;4.53;;;3.83;;
6378;SDS011;3222;48.858;10.128;2023-06-14T03:08:43;4.23;;;3.83;;
6378;SDS011;3222;48.858;10.128;2023-06-14T03:11:13;5.77;;;4.10;;
6378;SDS011;3222;48.858;10.128;2023-06-14T03:13:39;5.20;;;4.40;;
6378;SDS011;3222;48.858;10.128;2023-06-14T03:16:06;6.00;;;4.10;;
6378;SDS011;3222;48.858;10.128;2023-06-14T03:18:36;5.10;;;4.40;;
6378;SDS011;3222;48.858;10.128;2023-06-14T03:21:04;4.93;;;4.50;;
6378;SDS011;3222;48.858;10.128;2023-06-14T03:23:32;5.43;;;3.70;;
6378;SDS011;3222;48.858;10.128;2023-06-14T03:25:58;4.57;;;4.07;;
6378;SDS011;3222;48.858;10.128;2023-06-14T03:28:23;7.50;;;3.77;;
6378;SDS011;3222;48.858;10.128;2023-06-14T03:30:50;6.13;;;3.90;;
6378;SDS011;3222;48.858;10.128;2023-06-14T03:33:16;5.37;;;3.43;;
6378;SDS011;3222;48.858;10.128;2023-06-14T03:35:42;4.60;;;3.80;;
6378;SDS011;3222;48.858;10.128;2023-06-14T03:38:09;5.70;;;3.57;;
6378;SDS011;3222;48.858;10.128;2023-06-14T03:40:35;5.90;;;3.53;;
6378;SDS011;3222;48.858;10.128;2023-06-14T03:43:03;3.80;;;3.00;;
6378;SDS011;3222;48.858;10.128;2023-06-14T03:45:29;5.53;;;3.20;;
6378;SDS011;3222;48.858;10.128;2023-06-14T03:47:56;4.60;;;3.10;;
6378;SDS011;3222;48.858;10.128;2023-06-14T03:50:22;3.30;;;3.00;;
6378;SDS011;3222;48.858;10.128;2023-06-14T03:52:49;4.37;;;3.00;;
6378;SDS011;3222;48.858;10.128;2023-06-14T03:55:16;3.50;;;3.20;;
6378;SDS011;3222;48.858;10.128;2023-06-14T03:57:42;3.47;;;3.17;;
6378;SDS011;3222;48.858;10.128;2023-06-14T04:00:11;6.30;;;3.30;;
6378;SDS011;3222;48.858;10.128;2023-06-14T04:02:40;5.93;;;3.27;;
6378;SDS011;3222;48.858;10.128;2023-06-14T04:05:08;4.13;;;2.90;;
6378;SDS011;3222;48.858;10.128;2023-06-14T04:07:36;4.27;;;3.23;;
6378;SDS011;3222;48.858;10.128;2023-06-14T04:10:06;3.30;;;3.03;;
6378;SDS011;3222;48.858;10.128;2023-06-14T04:12:33;4.10;;;3.70;;
6378;SDS011;3222;48.858;10.128;2023-06-14T04:14:59;6.20;;;4.50;;
6378;SDS011;3222;48.858;10.128;2023-06-14T04:17:26;7.57;;;5.67;;
6378;SDS011;3222;48.858;10.128;2023-06-14T04:19:52;10.93;;;5.70;;
6378;SDS011;3222;48.858;10.128;2023-06-14T04:22:18;12.47;;;5.30;;
6378;SDS011;3222;48.858;10.128;2023-06-14T04:24:44;7.27;;;3.80;;
6378;SDS011;3222;48.858;10.128;2023-06-14T04:27:10;8.13;;;4.10;;
6378;SDS011;3222;48.858;10.128;2023-06-14T04:29:37;6.03;;;3.70;;
6378;SDS011;3222;48.858;10.128;2023-06-14T04:32:07;3.50;;;3.20;;
6378;SDS011;3222;48.858;10.128;2023-06-14T04:34:36;10.03;;;3.80;;
6378;SDS011;3222;48.858;10.128;2023-06-14T04:37:03;4.57;;;3.47;;
6378;SDS011;3222;48.858;10.128;2023-06-14T04:39:35;4.70;;;3.07;;
6378;SDS011;3222;48.858;10.128;2023-06-14T04:42:01;4.17;;;3.47;;
6378;SDS011;3222;48.858;10.128;2023-06-14T04:44:29;4.97;;;3.07;;
6378;SDS011;3222;48.858;10.128;2023-06-14T04:47:00;3.80;;;3.30;;
6378;SDS011;3222;48.858;10.128;2023-06-14T04:49:25;3.63;;;3.10;;
6378;SDS011;3222;48.858;10.128;2023-06-14T04:51:52;3.97;;;3.23;;
6378;SDS011;3222;48.858;10.128;2023-06-14T04:54:23;5.40;;;3.17;;
6378;SDS011;3222;48.858;10.128;2023-06-14T04:56:52;3.30;;;3.07;;
6378;SDS011;3222;48.858;10.128;2023-06-14T04:59:21;5.83;;;3.20;;
6378;SDS011;3222;48.858;10.128;2023-06-14T05:01:48;5.23;;;3.20;;
6378;SDS011;3222;48.858;10.128;2023-06-14T05:04:15;3.77;;;3.27;;
6378;SDS011;3222;48.858;10.128;2023-06-14T05:06:42;5.20;;;3.20;;
6378;SDS011;3222;48.858;10.128;2023-06-14T05:09:14;7.30;;;4.00;;
6378;SDS011;3222;48.858;10.128;2023-06-14T05:11:41;5.47;;;4.37;;
6378;SDS011;3222;48.858;10.128;2023-06-14T05:14:10;5.30;;;4.60;;
6378;SDS011;3222;48.858;10.128;2023-06-14T05:16:36;7.13;;;4.80;;
6378;SDS011;3222;48.858;10.128;2023-06-14T05:19:02;4.20;;;3.80;;
6378;SDS011;3222;48.858;10.128;2023-06-14T05:21:29;7.73;;;3.87;;
6378;SDS011;3222;48.858;10.128;2023-06-14T05:23:55;4.77;;;3.80;;
6378;SDS011;3222;48.858;10.128;2023-06-14T05:26:21;4.10;;;3.70;;
6378;SDS011;3222;48.858;10.128;2023-06-14T05:28:50;4.30;;;3.90;;
6378;SDS011;3222;48.858;10.128;2023-06-14T05:31:17;6.27;;;3.83;;
6378;SDS011;3222;48.858;10.128;2023-06-14T05:33:43;4.23;;;3.90;;
6378;SDS011;3222;48.858;10.128;2023-06-14T05:36:09;7.63;;;4.40;;
6378;SDS011;3222;48.858;10.128;2023-06-14T05:38:34;6.60;;;4.20;;
6378;SDS011;3222;48.858;10.128;2023-06-14T05:41:00;4.73;;;3.90;;
6378;SDS011;3222;48.858;10.128;2023-06-14T05:43:26;8.33;;;4.30;;
6378;SDS011;3222;48.858;10.128;2023-06-14T05:45:51;4.27;;;3.87;;
6378;SDS011;3222;48.858;10.128;2023-06-14T05:48:17;5.17;;;4.00;;
6378;SDS011;3222;48.858;10.128;2023-06-14T05:50:43;6.03;;;4.77;;
6378;SDS011;3222;48.858;10.128;2023-06-14T05:53:08;5.47;;;4.77;;
6378;SDS011;3222;48.858;10.128;2023-06-14T05:55:34;11.00;;;5.03;;
6378;SDS011;3222;48.858;10.128;2023-06-14T05:58:01;7.07;;;5.93;;
6378;SDS011;3222;48.858;10.128;2023-06-14T06:00:26;7.90;;;6.00;;
6378;SDS011;3222;48.858;10.128;2023-06-14T06:02:52;9.90;;;6.07;;
6378;SDS011;3222;48.858;10.128;2023-06-14T06:05:18;10.90;;;7.80;;
6378;SDS011;3222;48.858;10.128;2023-06-14T06:07:44;9.47;;;7.87;;
6378;SDS011;3222;48.858;10.128;2023-06-14T06:10:11;3.77;;;3.47;;
6378;SDS011;3222;48.858;10.128;2023-06-14T06:12:37;3.70;;;3.40;;
6378;SDS011;3222;48.858;10.128;2023-06-14T06:15:03;4.27;;;3.30;;
6378;SDS011;3222;48.858;10.128;2023-06-14T06:17:29;4.43;;;3.40;;
6378;SDS011;3222;48.858;10.128;2023-06-14T06:19:55;4.50;;;4.10;;
6378;SDS011;3222;48.858;10.128;2023-06-14T06:22:21;5.70;;;5.07;;
6378;SDS011;3222;48.858;10.128;2023-06-14T06:24:46;6.77;;;5.53;;
6378;SDS011;3222;48.858;10.128;2023-06-14T06:27:12;5.93;;;5.20;;
6378;SDS011;3222;48.858;10.128;2023-06-14T06:29:38;6.03;;;5.30;;
6378;SDS011;3222;48.858;10.128;2023-06-14T06:32:04;7.10;;;5.27;;
6378;SDS011;3222;48.858;10.128;2023-06-14T06:34:30;8.27;;;5.53;;
6378;SDS011;3222;48.858;10.128;2023-06-14T06:36:56;6.47;;;5.70;;
6378;SDS011;3222;48.858;10.128;2023-06-14T06:39:21;7.13;;;6.00;;
6378;SDS011;3222;48.858;10.128;2023-06-14T06:41:47;6.60;;;5.37;;
6378;SDS011;3222;48.858;10.128;2023-06-14T06:44:13;6.13;;;5.00;;
6378;SDS011;3222;48.858;10.128;2023-06-14T06:46:39;6.67;;;4.80;;
6378;SDS011;3222;48.858;10.128;2023-06-14T06:49:06;5.43;;;4.53;;
6378;SDS011;3222;48.858;10.128;2023-06-14T06:51:32;6.53;;;4.07;;
6378;SDS011;3222;48.858;10.128;2023-06-14T06:53:59;6.00;;;4.77;;
6378;SDS011;3222;48.858;10.128;2023-06-14T06:56:25;4.20;;;3.90;;
6378;SDS011;3222;48.858;10.128;2023-06-14T06:58:51;5.67;;;4.20;;
6378;SDS011;3222;48.858;10.128;2023-06-14T07:01:17;7.43;;;4.00;;
6378;SDS011;3222;48.858;10.128;2023-06-14T07:03:43;4.30;;;3.90;;
6378;SDS011;3222;48.858;10.128;2023-06-14T07:06:09;4.40;;;4.00;;
6378;SDS011;3222;48.858;10.128;2023-06-14T07:08:35;4.10;;;3.70;;
6378;SDS011;3222;48.858;10.128;2023-06-14T07:11:03;5.97;;;3.57;;
6378;SDS011;3222;48.858;10.128;2023-06-14T07:13:30;3.93;;;3.30;;
6378;SDS011;3222;48.858;10.128;2023-06-14T07:15:59;5.40;;;3.27;;
6378;SDS011;3222;48.858;10.128;2023-06-14T07:18:26;3.97;;;3.13;;
6378;SDS011;3222;48.858;10.128;2023-06-14T07:20:52;3.40;;;3.10;;
6378;SDS011;3222;48.858;10.128;2023-06-14T07:23:19;6.87;;;3.30;;
6378;SDS011;3222;48.858;10.128;2023-06-14T07:25:45;5.00;;;3.20;;
6378;SDS011;3222;48.858;10.128;2023-06-14T07:28:11;4.23;;;3.13;;
6378;SDS011;3222;48.858;10.128;2023-06-14T07:30:37;7.23;;;3.30;;
6378;SDS011;3222;48.858;10.128;2023-06-14T07:33:02;4.33;;;3.10;;
6378;SDS011;3222;48.858;10.128;2023-06-14T07:35:28;5.43;;;3.17;;
6378;SDS011;3222;48.858;10.128;2023-06-14T07:37:54;5.00;;;3.20;;
6378;SDS011;3222;48.858;10.128;2023-06-14T07:40:20;3.47;;;2.90;;
6378;SDS011;3222;48.858;10.128;2023-06-14T07:42:45;4.07;;;3.57;;
6378;SDS011;3222;48.858;10.128;2023-06-14T07:45:12;3.73;;;3.13;;
6378;SDS011;3222;48.858;10.128;2023-06-14T07:47:39;4.70;;;3.20;;
6378;SDS011;3222;48.858;10.128;2023-06-14T07:50:05;5.03;;;3.60;;
6378;SDS011;3222;48.858;10.128;2023-06-14T07:52:33;6.17;;;3.43;;
6378;SDS011;3222;48.858;10.128;2023-06-14T07:54:58;4.30;;;3.90;;
6378;SDS011;3222;48.858;10.128;2023-06-14T07:57:25;3.87;;;3.57;;
6378;SDS011;3222;48.858;10.128;2023-06-14T07:59:51;4.33;;;3.30;;
6378;SDS011;3222;48.858;10.128;2023-06-14T08:02:17;4.17;;;3.30;;
6378;SDS011;3222;48.858;10.128;2023-06-14T08:04:43;3.80;;;3.50;;
6378;SDS011;3222;48.858;10.128;2023-06-14T08:07:09;5.57;;;3.63;;
6378;SDS011;3222;48.858;10.128;2023-06-14T08:09:35;4.63;;;3.40;;
6378;SDS011;3222;48.858;10.128;2023-06-14T08:12:03;4.90;;;3.80;;
6378;SDS011;3222;48.858;10.128;2023-06-14T08:14:32;4.40;;;3.70;;
6378;SDS011;3222;48.858;10.128;2023-06-14T08:16:58;5.97;;;3.33;;
6378;SDS011;3222;48.858;10.128;2023-06-14T08:19:24;5.53;;;3.47;;
6378;SDS011;3222;48.858;10.128;2023-06-14T08:21:50;7.00;;;3.80;;
6378;SDS011;3222;48.858;10.128;2023-06-14T08:24:16;5.43;;;3.37;;
6378;SDS011;3222;48.858;10.128;2023-06-14T08:26:42;4.77;;;3.57;;
6378;SDS011;3222;48.858;10.128;2023-06-14T08:29:07;9.60;;;4.23;;
6378;SDS011;3222;48.858;10.128;2023-06-14T08:31:33;3.30;;;3.03;;
6378;SDS011;3222;48.858;10.128;2023-06-14T08:33:59;3.37;;;3.07;;
6378;SDS011;3222;48.858;10.128;2023-06-14T08:36:24;4.57;;;3.47;;
6378;SDS011;3222;48.858;10.128;2023-06-14T08:38:50;3.43;;;2.90;;
6378;SDS011;3222;48.858;10.128;2023-06-14T08:41:22;6.63;;;3.27;;
6378;SDS011;3222;48.858;10.128;2023-06-14T08:43:51;5.00;;;3.23;;
6378;SDS011;3222;48.858;10.128;2023-06-14T08:46:17;4.27;;;3.40;;
6378;SDS011;3222;48.858;10.128;2023-06-14T08:48:54;4.13;;;3.47;;
6378;SDS011;3222;48.858;10.128;2023-06-14T08:51:24;6.47;;;3.47;;
6378;SDS011;3222;48.858;10.128;2023-06-14T08:53:55;3.73;;;3.40;;
6378;SDS011;3222;48.858;10.128;2023-06-14T08:56:24;6.10;;;4.20;;
6378;SDS011;3222;48.858;10.128;2023-06-14T08:58:52;3.80;;;3.33;;
6378;SDS011;3222;48.858;10.128;2023-06-14T09:01:18;4.13;;;3.77;;
6378;SDS011;3222;48.858;10.128;2023-06-14T09:03:46;3.43;;;3.10;;
6378;SDS011;3222;48.858;10.128;2023-06-14T09:06:14;4.67;;;3.70;;
6378;SDS011;3222;48.858;10.128;2023-06-14T09:08:44;3.63;;;3.33;;
6378;SDS011;3222;48.858;10.128;2023-06-14T09:11:15;4.03;;;3.47;;
6378;SDS011;3222;48.858;10.128;2023-06-14T09:13:44;3.57;;;3.27;;
6378;SDS011;3222;48.858;10.128;2023-06-14T09:16:12;3.83;;;3.43;;
6378;SDS011;3222;48.858;10.128;2023-06-14T09:18:39;5.27;;;3.50;;
6378;SDS011;3222;48.858;10.128;2023-06-14T09:21:09;5.47;;;3.53;;
6378;SDS011;3222;48.858;10.128;2023-06-14T09:23:40;5.33;;;3.20;;
6378;SDS011;3222;48.858;10.128;2023-06-14T09:26:07;5.63;;;3.27;;
6378;SDS011;3222;48.858;10.128;2023-06-14T09:28:46;4.40;;;3.57;;
6378;SDS011;3222;48.858;10.128;2023-06-14T09:31:14;7.03;;;3.67;;
6378;SDS011;3222;48.858;10.128;2023-06-14T09:33:41;3.90;;;3.47;;
6378;SDS011;3222;48.858;10.128;2023-06-14T09:36:14;4.80;;;3.23;;
6378;SDS011;3222;48.858;10.128;2023-06-14T09:38:55;5.60;;;3.03;;
6378;SDS011;3222;48.858;10.128;2023-06-14T09:41:40;4.33;;;2.93;;
6378;SDS011;3222;48.858;10.128;2023-06-14T09:44:08;3.33;;;3.10;;
6378;SDS011;3222;48.858;10.128;2023-06-14T09:46:35;3.87;;;3.13;;
6378;SDS011;3222;48.858;10.128;2023-06-14T09:49:02;6.03;;;3.50;;
6378;SDS011;3222;48.858;10.128;2023-06-14T09:51:28;3.87;;;3.47;;
6378;SDS011;3222;48.858;10.128;2023-06-14T09:54:01;3.57;;;3.27;;
6378;SDS011;3222;48.858;10.128;2023-06-14T09:56:38;3.67;;;3.27;;
6378;SDS011;3222;48.858;10.128;2023-06-14T09:59:06;5.67;;;3.27;;
6378;SDS011;3222;48.858;10.128;2023-06-14T10:01:35;5.37;;;3.57;;
6378;SDS011;3222;48.858;10.128;2023-06-14T10:04:04;4.40;;;3.23;;
6378;SDS011;3222;48.858;10.128;2023-06-14T10:06:32;3.83;;;3.30;;
6378;SDS011;3222;48.858;10.128;2023-06-14T10:09:08;3.97;;;3.50;;
6378;SDS011;3222;48.858;10.128;2023-06-14T10:11:35;3.30;;;3.00;;
6378;SDS011;3222;48.858;10.128;2023-06-14T10:14:02;5.50;;;3.17;;
6378;SDS011;3222;48.858;10.128;2023-06-14T10:19:05;4.00;;;3.20;;
6378;SDS011;3222;48.858;10.128;2023-06-14T10:21:46;3.13;;;2.87;;
6378;SDS011;3222;48.858;10.128;2023-06-14T10:24:23;3.73;;;3.03;;
6378;SDS011;3222;48.858;10.128;2023-06-14T10:27:06;4.00;;;3.10;;
6378;SDS011;3222;48.858;10.128;2023-06-14T10:30:01;5.17;;;3.07;;
6378;SDS011;3222;48.858;10.128;2023-06-14T10:32:21;3.97;;;2.87;;
6378;SDS011;3222;48.858;10.128;2023-06-14T10:34:54;4.87;;;3.37;;
6378;SDS011;3222;48.858;10.128;2023-06-14T10:37:21;4.53;;;3.27;;
6378;SDS011;3222;48.858;10.128;2023-06-14T10:39:47;5.83;;;3.50;;
6378;SDS011;3222;48.858;10.128;2023-06-14T10:42:13;4.40;;;3.23;;
6378;SDS011;3222;48.858;10.128;2023-06-14T10:44:49;4.00;;;3.00;;
6378;SDS011;3222;48.858;10.128;2023-06-14T10:49:50;5.80;;;3.10;;
6378;SDS011;3222;48.858;10.128;2023-06-14T10:52:24;3.20;;;2.90;;
6378;SDS011;3222;48.858;10.128;2023-06-14T10:54:58;5.27;;;2.90;;
6378;SDS011;3222;48.858;10.128;2023-06-14T10:57:29;4.23;;;3.10;;
6378;SDS011;3222;48.858;10.128;2023-06-14T11:00:02;4.80;;;3.10;;
6378;SDS011;3222;48.858;10.128;2023-06-14T11:05:23;3.83;;;3.20;;
6378;SDS011;3222;48.858;10.128;2023-06-14T11:10:57;5.17;;;2.90;;
6378;SDS011;3222;48.858;10.128;2023-06-14T11:13:25;4.53;;;3.13;;
6378;SDS011;3222;48.858;10.128;2023-06-14T11:15:51;4.67;;;3.27;;
6378;SDS011;3222;48.858;10.128;2023-06-14T11:18:21;3.87;;;3.00;;
6378;SDS011;3222;48.858;10.128;2023-06-14T11:20:52;5.80;;;3.33;;
6378;SDS011;3222;48.858;10.128;2023-06-14T11:23:18;6.03;;;3.13;;
6378;SDS011;3222;48.858;10.128;2023-06-14T11:25:49;3.40;;;3.00;;
6378;SDS011;3222;48.858;10.128;2023-06-14T11:28:16;4.20;;;3.40;;
6378;SDS011;3222;48.858;10.128;2023-06-14T11:30:42;4.23;;;3.20;;
6378;SDS011;3222;48.858;10.128;2023-06-14T11:33:09;7.37;;;3.17;;
6378;SDS011;3222;48.858;10.128;2023-06-14T11:35:36;6.07;;;3.00;;
6378;SDS011;3222;48.858;10.128;2023-06-14T11:38:02;3.60;;;3.03;;
6378;SDS011;3222;48.858;10.128;2023-06-14T11:40:28;4.27;;;3.17;;
6378;SDS011;3222;48.858;10.128;2023-06-14T11:43:00;3.30;;;3.00;;
6378;SDS011;3222;48.858;10.128;2023-06-14T11:45:26;2.80;;;2.60;;
6378;SDS011;3222;48.858;10.128;2023-06-14T11:47:54;2.87;;;2.67;;
6378;SDS011;3222;48.858;10.128;2023-06-14T11:50:21;4.10;;;3.00;;
6378;SDS011;3222;48.858;10.128;2023-06-14T11:52:54;4.70;;;3.47;;
6378;SDS011;3222;48.858;10.128;2023-06-14T11:55:38;4.07;;;3.07;;
6378;SDS011;3222;48.858;10.128;2023-06-14T11:58:05;3.03;;;2.73;;
6378;SDS011;3222;48.858;10.128;2023-06-14T12:00:31;3.73;;;2.90;;
6378;SDS011;3222;48.858;10.128;2023-06-14T12:02:57;4.83;;;3.00;;
6378;SDS011;3222;48.858;10.128;2023-06-14T12:05:23;4.73;;;3.10;;
6378;SDS011;3222;48.858;10.128;2023-06-14T12:07:57;2.93;;;2.53;;
6378;SDS011;3222;48.858;10.128;2023-06-14T12:10:25;3.47;;;2.83;;
6378;SDS011;3222;48.858;10.128;2023-06-14T12:12:51;3.17;;;2.87;;
6378;SDS011;3222;48.858;10.128;2023-06-14T12:15:21;3.00;;;2.70;;
6378;SDS011;3222;48.858;10.128;2023-06-14T12:17:47;3.43;;;2.80;;
6378;SDS011;3222;48.858;10.128;2023-06-14T12:20:13;3.93;;;2.80;;
6378;SDS011;3222;48.858;10.128;2023-06-14T12:23:14;3.50;;;3.20;;
6378;SDS011;3222;48.858;10.128;2023-06-14T12:25:33;3.27;;;2.80;;
6378;SDS011;3222;48.858;10.128;2023-06-14T12:28:08;3.40;;;3.10;;
6378;SDS011;3222;48.858;10.128;2023-06-14T12:30:35;3.47;;;3.00;;
6378;SDS011;3222;48.858;10.128;2023-06-14T12:33:02;2.87;;;2.60;;
6378;SDS011;3222;48.858;10.128;2023-06-14T12:35:28;6.20;;;2.70;;
6378;SDS011;3222;48.858;10.128;2023-06-14T12:37:54;3.20;;;2.90;;
6378;SDS011;3222;48.858;10.128;2023-06-14T12:40:19;6.77;;;2.90;;
6378;SDS011;3222;48.858;10.128;2023-06-14T12:42:46;4.73;;;3.07;;
6378;SDS011;3222;48.858;10.128;2023-06-14T12:45:14;5.60;;;3.07;;
6378;SDS011;3222;48.858;10.128;2023-06-14T12:47:40;4.23;;;2.50;;
6378;SDS011;3222;48.858;10.128;2023-06-14T12:50:06;6.23;;;3.10;;
6378;SDS011;3222;48.858;10.128;2023-06-14T12:52:32;3.27;;;2.70;;
6378;SDS011;3222;48.858;10.128;2023-06-14T12:55:01;3.33;;;2.83;;
6378;SDS011;3222;48.858;10.128;2023-06-14T12:57:28;3.37;;;2.87;;
6378;SDS011;3222;48.858;10.128;2023-06-14T12:59:54;4.00;;;3.00;;
6378;SDS011;3222;48.858;10.128;2023-06-14T13:02:20;3.33;;;2.97;;
6378;SDS011;3222;48.858;10.128;2023-06-14T13:04:47;3.03;;;2.60;;
6378;SDS011;3222;48.858;10.128;2023-06-14T13:07:13;3.10;;;2.80;;
6378;SDS011;3222;48.858;10.128;2023-06-14T13:09:40;4.60;;;2.90;;
6378;SDS011;3222;48.858;10.128;2023-06-14T13:12:06;3.50;;;3.20;;
6378;SDS011;3222;48.858;10.128;2023-06-14T13:14:33;2.80;;;2.60;;
6378;SDS011;3222;48.858;10.128;2023-06-14T13:16:59;4.03;;;3.03;;
6378;SDS011;3222;48.858;10.128;2023-06-14T13:19:24;5.30;;;2.90;;
6378;SDS011;3222;48.858;10.128;2023-06-14T13:21:50;4.17;;;2.70;;
6378;SDS011;3222;48.858;10.128;2023-06-14T13:24:16;3.43;;;3.07;;
6378;SDS011;3222;48.858;10.128;2023-06-14T13:26:42;3.17;;;2.87;;
6378;SDS011;3222;48.858;10.128;2023-06-14T13:29:08;6.23;;;2.93;;
6378;SDS011;3222;48.858;10.128;2023-06-14T13:31:33;3.73;;;3.27;;
6378;SDS011;3222;48.858;10.128;2023-06-14T13:33:59;3.93;;;2.90;;
6378;SDS011;3222;48.858;10.128;2023-06-14T13:36:25;5.10;;;2.80;;
6378;SDS011;3222;48.858;10.128;2023-06-14T13:38:51;3.40;;;3.10;;
6378;SDS011;3222;48.858;10.128;2023-06-14T13:41:18;6.27;;;2.90;;
6378;SDS011;3222;48.858;10.128;2023-06-14T13:43:43;4.50;;;2.87;;
6378;SDS011;3222;48.858;10.128;2023-06-14T13:46:09;5.67;;;2.83;;
6378;SDS011;3222;48.858;10.128;2023-06-14T13:48:34;4.18;;;2.42;;
6378;SDS011;3222;48.858;10.128;2023-06-14T13:51:00;4.93;;;2.77;;
6378;SDS011;3222;48.858;10.128;2023-06-14T13:53:26;4.93;;;2.67;;
6378;SDS011;3222;48.858;10.128;2023-06-14T13:55:52;4.77;;;2.50;;
6378;SDS011;3222;48.858;10.128;2023-06-14T13:58:17;4.40;;;2.83;;
6378;SDS011;3222;48.858;10.128;2023-06-14T14:00:44;7.50;;;2.90;;
6378;SDS011;3222;48.858;10.128;2023-06-14T14:03:09;3.07;;;2.87;;
6378;SDS011;3222;48.858;10.128;2023-06-14T14:05:36;4.23;;;2.77;;
6378;SDS011;3222;48.858;10.128;2023-06-14T14:08:01;6.27;;;3.10;;
6378;SDS011;3222;48.858;10.128;2023-06-14T14:10:28;3.57;;;3.27;;
6378;SDS011;3222;48.858;10.128;2023-06-14T14:12:54;4.17;;;2.70;;
6378;SDS011;3222;48.858;10.128;2023-06-14T14:15:20;2.78;;;2.58;;
6378;SDS011;3222;48.858;10.128;2023-06-14T14:17:46;4.23;;;2.90;;
6378;SDS011;3222;48.858;10.128;2023-06-14T14:20:15;4.03;;;2.70;;
6378;SDS011;3222;48.858;10.128;2023-06-14T14:22:42;4.40;;;2.70;;
6378;SDS011;3222;48.858;10.128;2023-06-14T14:25:08;3.50;;;2.27;;
6378;SDS011;3222;48.858;10.128;2023-06-14T14:27:34;2.90;;;2.70;;
6378;SDS011;3222;48.858;10.128;2023-06-14T14:30:00;3.10;;;2.80;;
6378;SDS011;3222;48.858;10.128;2023-06-14T14:32:26;3.93;;;2.73;;
6378;SDS011;3222;48.858;10.128;2023-06-14T14:34:52;4.27;;;2.90;;
6378;SDS011;3222;48.858;10.128;2023-06-14T14:37:17;6.13;;;2.45;;
6378;SDS011;3222;48.858;10.128;2023-06-14T14:39:46;4.77;;;3.40;;
6378;SDS011;3222;48.858;10.128;2023-06-14T14:42:12;2.97;;;2.43;;
6378;SDS011;3222;48.858;10.128;2023-06-14T14:44:38;3.63;;;2.73;;
6378;SDS011;3222;48.858;10.128;2023-06-14T14:47:04;10.30;;;2.80;;
6378;SDS011;3222;48.858;10.128;2023-06-14T14:49:34;3.10;;;2.80;;
6378;SDS011;3222;48.858;10.128;2023-06-14T14:51:59;3.03;;;2.73;;
6378;SDS011;3222;48.858;10.128;2023-06-14T14:54:25;5.00;;;2.77;;
6378;SDS011;3222;48.858;10.128;2023-06-14T14:56:51;2.60;;;2.40;;
6378;SDS011;3222;48.858;10.128;2023-06-14T14:59:17;3.77;;;2.70;;
6378;SDS011;3222;48.858;10.128;2023-06-14T15:01:43;4.33;;;3.03;;
6378;SDS011;3222;48.858;10.128;2023-06-14T15:04:10;5.32;;;2.60;;
6378;SDS011;3222;48.858;10.128;2023-06-14T15:06:36;3.37;;;2.43;;
6378;SDS011;3222;48.858;10.128;2023-06-14T15:09:03;2.87;;;2.67;;
6378;SDS011;3222;48.858;10.128;2023-06-14T15:11:29;2.87;;;2.67;;
6378;SDS011;3222;48.858;10.128;2023-06-14T15:13:55;4.97;;;2.67;;
6378;SDS011;3222;48.858;10.128;2023-06-14T15:16:20;5.87;;;2.57;;
6378;SDS011;3222;48.858;10.128;2023-06-14T15:18:46;2.97;;;2.60;;